Time;durP1;ratioP1;P1;durP2;ratioP2;P2;SDS_P1;SDS_P2;PMS_P1;PMS_P2;Temp;Humidity;BMP_temperature;BMP_pressure;BME280_temperature;BME280_humidity;BME280_pressure;Samples;Min_cycle;Max_cycle;Signal;HPM_P1;HPM_P2
2023/03/08 00:01:50;;;;;;;2.40;1.10;;;-0.30;99.90;;;;;;7403879;19;19930;-77
2023/03/08 00:04:19;;;;;;;1.10;0.60;;;0.80;99.90;;;;;;7406417;19;19914;-77
2023/03/08 00:06:48;;;;;;;0.68;0.60;;;0.00;99.90;;;;;;7408322;19;19922;-77
2023/03/08 00:09:17;;;;;;;0.88;0.50;;;0.90;99.90;;;;;;7408838;19;19914;-78
2023/03/08 00:11:49;;;;;;;0.47;0.47;;;0.30;99.90;;;;;;7405320;19;19914;-77
2023/03/08 00:14:19;;;;;;;1.15;0.60;;;-0.50;99.90;;;;;;7405102;19;20006;-77
2023/03/08 00:16:48;;;;;;;4.68;0.70;;;-0.40;99.90;;;;;;7406195;19;19933;-77
2023/03/08 00:19:17;;;;;;;0.70;0.50;;;-0.40;99.90;;;;;;7405280;19;20569;-77
2023/03/08 00:21:49;;;;;;;1.10;0.70;;;0.00;99.90;;;;;;7404070;19;19931;-77
2023/03/08 00:24:18;;;;;;;2.50;0.88;;;-0.60;99.90;;;;;;7405653;19;19981;-77
2023/03/08 00:26:51;;;;;;;3.58;1.08;;;-0.10;99.90;;;;;;7407281;19;19942;-77
2023/03/08 00:29:19;;;;;;;2.75;0.85;;;-0.40;99.90;;;;;;7408454;19;20363;-77
2023/03/08 00:31:48;;;;;;;1.70;1.00;;;0.10;99.90;;;;;;7404219;19;19946;-77
2023/03/08 00:34:19;;;;;;;3.15;0.77;;;-0.10;99.90;;;;;;7408804;19;20018;-77
2023/03/08 00:36:48;;;;;;;3.25;1.13;;;-0.80;99.90;;;;;;7404351;19;19918;-78
2023/03/08 00:39:18;;;;;;;1.20;0.70;;;;;;;;;;7408129;19;19945;-77
2023/03/08 00:41:47;;;;;;;3.63;1.00;;;-0.70;99.90;;;;;;7402722;19;20357;-77
2023/03/08 00:44:18;;;;;;;1.98;0.60;;;-0.80;99.90;;;;;;7403366;19;19914;-77
2023/03/08 00:46:47;;;;;;;1.98;0.68;;;-0.40;99.90;;;;;;7405183;19;19915;-77
2023/03/08 00:49:16;;;;;;;1.17;0.60;;;0.50;99.90;;;;;;7404183;19;19923;-78
2023/03/08 00:51:45;;;;;;;4.07;0.75;;;-0.70;99.90;;;;;;7408013;19;19923;-77
2023/03/08 00:54:14;;;;;;;3.38;0.70;;;0.30;99.90;;;;;;7404555;19;19933;-77
2023/03/08 00:56:43;;;;;;;1.75;0.52;;;-0.90;99.90;;;;;;7404648;19;19919;-78
2023/03/08 00:59:12;;;;;;;1.48;0.50;;;-1.00;99.90;;;;;;7404182;19;20344;-77
2023/03/08 01:01:43;;;;;;;2.17;0.63;;;-1.10;99.90;;;;;;7403017;19;19918;-77
2023/03/08 01:04:12;;;;;;;1.92;0.52;;;0.00;99.90;;;;;;7400228;19;20403;-77
2023/03/08 01:06:42;;;;;;;1.58;0.73;;;-0.80;99.90;;;;;;7403456;19;19922;-77
2023/03/08 01:09:12;;;;;;;2.13;0.60;;;0.10;99.90;;;;;;7404343;19;19919;-77
2023/03/08 01:11:48;;;;;;;0.70;0.40;;;-0.60;99.90;;;;;;7403392;19;19926;-77
2023/03/08 01:14:18;;;;;;;1.27;0.75;;;;;;;;;;7405589;19;19924;-77
2023/03/08 01:16:49;;;;;;;1.08;0.70;;;-0.30;99.90;;;;;;7403651;19;20291;-77
2023/03/08 01:19:19;;;;;;;1.45;0.60;;;0.50;99.90;;;;;;7404182;19;20266;-77
2023/03/08 01:21:48;;;;;;;1.58;0.60;;;-0.70;99.90;;;;;;7404510;19;19932;-77
2023/03/08 01:24:17;;;;;;;1.05;0.70;;;-1.20;99.90;;;;;;7406355;19;19918;-78
2023/03/08 01:26:54;;;;;;;1.80;0.60;;;-0.10;99.90;;;;;;7406447;19;19926;-78
2023/03/08 01:29:23;;;;;;;2.38;0.88;;;-1.00;99.90;;;;;;7405229;19;19919;-76
2023/03/08 01:31:55;;;;;;;3.80;1.05;;;-0.40;99.90;;;;;;7403240;19;20332;-76
2023/03/08 01:34:24;;;;;;;4.20;0.90;;;0.10;99.90;;;;;;7406288;19;19942;-78
2023/03/08 01:37:00;;;;;;;1.25;0.50;;;0.40;99.90;;;;;;7405592;19;19941;-77
2023/03/08 01:39:30;;;;;;;0.82;0.60;;;0.40;99.90;;;;;;7404441;19;19922;-77
2023/03/08 01:42:00;;;;;;;1.38;0.80;;;-1.10;99.90;;;;;;7403845;19;19926;-77
2023/03/08 01:44:29;;;;;;;3.63;0.63;;;0.50;99.90;;;;;;7405015;19;20259;-77
2023/03/08 01:47:00;;;;;;;2.55;0.90;;;-0.50;99.90;;;;;;7403350;19;20552;-77
2023/03/08 01:49:32;;;;;;;1.35;0.70;;;0.20;99.90;;;;;;7402979;19;20359;-78
2023/03/08 01:52:16;;;;;;;2.53;0.70;;;-0.60;99.90;;;;;;7404443;19;20385;-77
2023/03/08 01:54:48;;;;;;;1.65;0.60;;;-1.20;99.90;;;;;;7403571;19;19929;-77
2023/03/08 01:57:21;;;;;;;1.73;0.75;;;-0.30;99.90;;;;;;7404509;19;20498;-77
2023/03/08 01:59:51;;;;;;;2.80;0.80;;;-0.40;99.90;;;;;;7403915;19;19929;-76
2023/03/08 02:02:26;;;;;;;1.85;0.70;;;-0.40;99.90;;;;;;7403881;19;19919;-77
2023/03/08 02:04:55;;;;;;;2.58;0.70;;;-1.00;99.90;;;;;;7405752;19;19918;-77
2023/03/08 02:07:24;;;;;;;2.00;0.85;;;;;;;;;;7403321;19;19982;-77
2023/03/08 02:09:56;;;;;;;3.05;1.00;;;-0.50;99.90;;;;;;7404405;19;19929;-78
2023/03/08 02:12:25;;;;;;;1.02;0.70;;;0.00;99.90;;;;;;7404464;19;19986;-78
2023/03/08 02:14:57;;;;;;;1.80;0.65;;;-0.80;99.90;;;;;;7406779;19;19966;-78
2023/03/08 02:17:28;;;;;;;0.82;0.70;;;-1.00;99.90;;;;;;7400731;19;20352;-77
2023/03/08 02:20:04;;;;;;;1.08;0.65;;;-0.90;99.90;;;;;;7403944;19;19925;-77
2023/03/08 02:22:34;;;;;;;1.85;0.63;;;-0.20;99.90;;;;;;7401122;19;19919;-78
2023/03/08 02:25:14;;;;;;;2.03;0.90;;;-0.50;99.90;;;;;;7403308;19;19918;-78
2023/03/08 02:27:44;;;;;;;2.20;0.82;;;;;;;;;;7401867;19;19922;-78
2023/03/08 02:30:16;;;;;;;1.42;0.55;;;-0.70;99.90;;;;;;7399681;19;19936;-77
2023/03/08 02:32:48;;;;;;;0.90;0.70;;;;;;;;;;7405331;19;19977;-78
2023/03/08 02:35:17;;;;;;;1.08;0.65;;;-0.90;99.90;;;;;;7401565;19;19926;-77
2023/03/08 02:37:46;;;;;;;1.23;0.70;;;-1.50;99.90;;;;;;7401635;19;19929;-77
2023/03/08 02:40:26;;;;;;;0.82;0.68;;;-0.10;99.90;;;;;;7401566;19;19918;-78
2023/03/08 02:42:55;;;;;;;1.52;0.70;;;;;;;;;;7398423;19;19915;-77
2023/03/08 02:45:25;;;;;;;2.10;0.70;;;-1.50;99.90;;;;;;7404298;19;19922;-77
2023/03/08 02:47:54;;;;;;;1.23;0.70;;;0.00;99.90;;;;;;7404595;19;20401;-77
2023/03/08 02:50:23;;;;;;;2.47;0.80;;;-0.40;99.90;;;;;;7406313;19;20556;-77
2023/03/08 02:52:52;;;;;;;1.42;0.80;;;;;;;;;;7401781;19;19922;-77
2023/03/08 02:55:21;;;;;;;1.42;0.60;;;;;;;;;;7401272;19;20395;-76
2023/03/08 02:57:55;;;;;;;1.33;0.80;;;-1.30;99.90;;;;;;7401366;19;19937;-78
2023/03/08 03:00:24;;;;;;;3.47;0.80;;;-1.40;99.90;;;;;;7401387;19;19922;-78
2023/03/08 03:02:53;;;;;;;1.73;0.77;;;-1.50;99.90;;;;;;7402295;19;19981;-77
2023/03/08 03:05:22;;;;;;;1.27;0.75;;;-0.30;99.90;;;;;;7400914;19;19919;-77
2023/03/08 03:07:51;;;;;;;1.25;0.65;;;-0.60;99.90;;;;;;7401797;19;19926;-77
2023/03/08 03:10:20;;;;;;;1.90;0.88;;;-1.30;99.90;;;;;;7402619;19;19926;-77
2023/03/08 03:12:49;;;;;;;1.30;0.75;;;0.10;99.90;;;;;;7400200;19;20344;-77
2023/03/08 03:15:22;;;;;;;2.33;0.90;;;0.00;99.90;;;;;;7402619;19;19920;-77
2023/03/08 03:17:51;;;;;;;1.85;0.93;;;-0.40;99.90;;;;;;7400209;19;19921;-78
2023/03/08 03:20:21;;;;;;;1.08;0.82;;;0.00;99.90;;;;;;7399238;19;19922;-78
2023/03/08 03:22:50;;;;;;;2.53;0.63;;;-0.40;99.90;;;;;;7399478;19;19911;-78
2023/03/08 03:25:19;;;;;;;2.22;0.93;;;-0.70;99.90;;;;;;7403059;19;19918;-77
2023/03/08 03:27:48;;;;;;;3.25;1.08;;;-1.10;99.90;;;;;;7400874;19;19926;-78
2023/03/08 03:30:18;;;;;;;1.40;0.88;;;0.00;99.90;;;;;;7404768;19;19923;-79
2023/03/08 03:32:52;;;;;;;1.42;0.90;;;-1.50;99.90;;;;;;7410209;19;19919;-79
2023/03/08 03:35:21;;;;;;;1.80;0.70;;;-1.20;99.90;;;;;;7407121;19;19914;-78
2023/03/08 03:37:50;;;;;;;1.15;0.80;;;0.10;99.90;;;;;;7406371;19;19934;-78
2023/03/08 03:40:19;;;;;;;1.80;1.00;;;-0.70;99.90;;;;;;7409247;19;19926;-78
2023/03/08 03:42:50;;;;;;;2.10;0.80;;;-1.50;99.90;;;;;;7403893;19;19918;-78
2023/03/08 03:45:19;;;;;;;0.82;0.65;;;-0.80;99.90;;;;;;7406156;19;20341;-78
2023/03/08 03:47:49;;;;;;;2.10;0.80;;;-0.40;99.90;;;;;;7406032;19;20446;-78
2023/03/08 03:50:20;;;;;;;5.05;1.10;;;-1.00;99.90;;;;;;7405860;19;20278;-78
2023/03/08 03:52:49;;;;;;;4.63;0.60;;;-1.20;99.90;;;;;;7406130;19;19918;-78
2023/03/08 03:55:18;;;;;;;3.05;0.80;;;-1.50;99.90;;;;;;7407658;19;19923;-78
2023/03/08 03:57:47;;;;;;;3.33;0.93;;;-1.50;99.90;;;;;;7405967;19;19928;-77
2023/03/08 04:00:18;;;;;;;2.08;0.82;;;-0.60;99.90;;;;;;7408294;19;19929;-78
2023/03/08 04:02:47;;;;;;;2.15;0.80;;;-1.20;99.90;;;;;;7404063;19;19922;-78
2023/03/08 04:05:16;;;;;;;2.83;0.93;;;-1.10;99.90;;;;;;7407220;19;19971;-78
2023/03/08 04:07:48;;;;;;;2.58;1.08;;;-1.60;99.90;;;;;;7406464;19;20283;-78
2023/03/08 04:10:17;;;;;;;0.95;0.77;;;;;;;;;;7405525;19;20427;-79
2023/03/08 04:12:46;;;;;;;1.67;0.90;;;-0.90;99.90;;;;;;7405047;19;19925;-78
2023/03/08 04:15:15;;;;;;;2.20;0.95;;;;;;;;;;7406010;19;19945;-79
2023/03/08 04:17:45;;;;;;;2.80;1.08;;;;;;;;;;7404782;19;19941;-78
2023/03/08 04:20:22;;;;;;;2.15;1.10;;;-0.60;99.90;;;;;;7404823;19;19919;-77
2023/03/08 04:22:54;;;;;;;0.90;0.73;;;-0.30;99.90;;;;;;7406644;19;19933;-79
2023/03/08 04:25:23;;;;;;;1.63;1.05;;;;;;;;;;7407778;19;19919;-79
2023/03/08 04:27:52;;;;;;;2.67;1.02;;;-0.30;99.90;;;;;;7407416;19;19926;-78
2023/03/08 04:30:22;;;;;;;2.70;1.00;;;-0.60;99.90;;;;;;7404952;19;19922;-78
2023/03/08 04:32:51;;;;;;;4.75;1.48;;;-0.10;99.90;;;;;;7404889;19;19926;-78
2023/03/08 04:35:21;;;;;;;2.38;1.42;;;-1.40;99.90;;;;;;7405894;19;20371;-78
2023/03/08 04:37:50;;;;;;;1.95;1.20;;;-0.90;99.90;;;;;;7409239;19;19922;-78
2023/03/08 04:40:23;;;;;;;1.70;1.27;;;-0.60;99.90;;;;;;7404797;19;19915;-78
2023/03/08 04:42:52;;;;;;;1.88;1.17;;;-0.90;99.90;;;;;;7403012;19;19914;-78
2023/03/08 04:45:21;;;;;;;2.58;1.60;;;-1.50;99.90;;;;;;7404790;19;19929;-78
2023/03/08 04:47:50;;;;;;;3.05;1.83;;;-0.70;99.90;;;;;;7406557;19;19919;-78
2023/03/08 04:50:20;;;;;;;1.75;1.60;;;-0.40;99.90;;;;;;7405647;19;19922;-78
2023/03/08 04:52:48;;;;;;;5.15;2.03;;;-0.90;99.90;;;;;;7404388;19;20281;-79
2023/03/08 04:55:18;;;;;;;3.35;1.88;;;-0.40;99.90;;;;;;7404264;19;19918;-78
2023/03/08 04:57:49;;;;;;;5.03;1.70;;;-1.10;99.90;;;;;;7404375;19;19923;-79
2023/03/08 05:00:19;;;;;;;2.72;1.88;;;-0.90;99.90;;;;;;7407233;19;19975;-78
2023/03/08 05:02:48;;;;;;;5.57;2.20;;;;;;;;;;7404771;19;19927;-78
2023/03/08 05:05:18;;;;;;;1.77;1.65;;;-1.60;99.90;;;;;;7403166;19;19923;-79
2023/03/08 05:07:47;;;;;;;3.10;1.70;;;-0.80;99.90;;;;;;7404042;19;19911;-78
2023/03/08 05:10:16;;;;;;;3.75;1.58;;;-1.30;99.90;;;;;;7403484;19;19931;-77
2023/03/08 05:12:45;;;;;;;6.60;2.05;;;;;;;;;;7402835;19;20001;-78
2023/03/08 05:15:17;;;;;;;5.82;2.30;;;-0.90;99.90;;;;;;7403436;19;20254;-78
2023/03/08 05:17:47;;;;;;;3.55;2.47;;;-0.10;99.90;;;;;;7403845;19;19910;-78
2023/03/08 05:20:16;;;;;;;4.43;2.05;;;-0.20;99.90;;;;;;7401601;19;19918;-78
2023/03/08 05:22:45;;;;;;;3.60;2.03;;;-1.60;99.90;;;;;;7402835;19;19914;-77
2023/03/08 05:25:14;;;;;;;6.05;1.90;;;-1.30;99.90;;;;;;7407727;19;19918;-79
2023/03/08 05:27:59;;;;;;;4.35;2.75;;;-1.00;99.90;;;;;;7406251;19;20287;-79
2023/03/08 05:30:30;;;;;;;3.72;2.20;;;-0.80;99.90;;;;;;7403944;19;20423;-79
2023/03/08 05:32:59;;;;;;;3.10;2.15;;;-1.50;99.90;;;;;;7402909;19;19935;-79
2023/03/08 05:35:28;;;;;;;3.17;2.10;;;-1.40;99.90;;;;;;7403046;19;19922;-79
2023/03/08 05:37:57;;;;;;;2.97;1.92;;;-1.20;99.90;;;;;;7404722;19;19925;-79
2023/03/08 05:40:26;;;;;;;2.85;1.92;;;;;;;;;;7403220;19;19911;-79
2023/03/08 05:42:56;;;;;;;5.15;2.78;;;-0.30;99.90;;;;;;7401574;19;20270;-79
2023/03/08 05:45:25;;;;;;;3.58;2.47;;;-1.40;99.90;;;;;;7402446;19;19922;-78
2023/03/08 05:47:57;;;;;;;3.05;2.60;;;-0.90;99.90;;;;;;7402765;19;19926;-79
2023/03/08 05:50:26;;;;;;;4.47;2.20;;;;;;;;;;7401064;19;19918;-79
2023/03/08 05:52:55;;;;;;;3.83;2.20;;;;;;;;;;7405500;19;19978;-79
2023/03/08 05:55:24;;;;;;;3.67;2.22;;;;;;;;;;7402939;19;19922;-79
2023/03/08 05:57:54;;;;;;;6.85;2.70;;;-1.70;99.90;;;;;;7403656;19;19918;-79
2023/03/08 06:00:25;;;;;;;3.47;2.53;;;-0.90;99.90;;;;;;7402173;19;19919;-79
2023/03/08 06:02:58;;;;;;;4.95;2.97;;;-1.10;99.90;;;;;;7401953;19;19919;-78
2023/03/08 06:05:27;;;;;;;3.58;2.50;;;-0.90;99.90;;;;;;7402377;19;19926;-79
2023/03/08 06:07:56;;;;;;;4.97;3.10;;;;;;;;;;7404724;19;20348;-80
2023/03/08 06:10:25;;;;;;;7.60;4.82;;;-1.70;99.90;;;;;;7404633;19;19930;-79
2023/03/08 06:12:54;;;;;;;4.75;3.40;;;-2.20;99.90;;;;;;7402059;19;19925;-78
2023/03/08 06:15:23;;;;;;;4.55;3.03;;;-2.30;99.90;;;;;;7403924;19;19918;-79
2023/03/08 06:17:57;;;;;;;4.45;3.55;;;-2.00;99.90;;;;;;7405317;19;20368;-79
2023/03/08 06:20:26;;;;;;;6.85;3.08;;;;;;;;;;7400298;19;19919;-78
2023/03/08 06:22:55;;;;;;;7.47;3.65;;;;;;;;;;7403952;19;20268;-79
2023/03/08 06:25:24;;;;;;;5.60;3.95;;;-1.90;99.90;;;;;;7405143;19;19927;-79
2023/03/08 06:27:55;;;;;;;5.93;3.50;;;;;;;;;;7401582;19;20281;-78
2023/03/08 06:30:24;;;;;;;6.13;3.72;;;-2.10;99.90;;;;;;7401934;19;19923;-79
2023/03/08 06:32:53;;;;;;;5.38;3.05;;;-0.80;99.90;;;;;;7405899;19;19933;-79
2023/03/08 06:35:28;;;;;;;6.90;3.50;;;-0.70;99.90;;;;;;7402637;19;19931;-81
2023/03/08 06:37:57;;;;;;;6.68;4.13;;;-2.00;99.90;;;;;;7404810;19;19927;-80
2023/03/08 06:40:26;;;;;;;6.50;4.10;;;;;;;;;;7403872;19;20364;-80
2023/03/08 06:42:55;;;;;;;4.85;3.58;;;-1.80;99.90;;;;;;7402505;19;19980;-80
2023/03/08 06:45:28;;;;;;;7.55;4.32;;;-1.80;99.90;;;;;;7403752;19;19918;-79
2023/03/08 06:47:57;;;;;;;5.65;3.90;;;-1.70;99.90;;;;;;7400957;19;19985;-80
2023/03/08 06:50:29;;;;;;;6.18;3.63;;;-1.10;99.90;;;;;;7403503;19;19923;-80
2023/03/08 06:52:58;;;;;;;8.30;3.90;;;;;;;;;;7403900;19;19958;-79
2023/03/08 06:55:27;;;;;;;6.97;3.83;;;-0.60;99.90;;;;;;7402573;19;19922;-75
2023/03/08 06:57:58;;;;;;;5.32;3.80;;;;;;;;;;7404596;19;19927;-76
2023/03/08 07:00:27;;;;;;;6.05;3.70;;;-1.80;99.90;;;;;;7400754;19;19929;-76
2023/03/08 07:02:57;;;;;;;7.18;4.53;;;-0.50;99.90;;;;;;7402610;19;19950;-75
2023/03/08 07:05:29;;;;;;;6.85;4.30;;;-0.60;99.90;;;;;;7400753;19;20050;-76
2023/03/08 07:07:58;;;;;;;5.93;4.25;;;-1.60;99.90;;;;;;7400862;19;19929;-75
2023/03/08 07:10:27;;;;;;;9.98;4.13;;;-1.80;99.90;;;;;;7400397;19;19915;-76
2023/03/08 07:12:56;;;;;;;4.40;3.55;;;;;;;;;;7400317;19;19944;-75
2023/03/08 07:15:26;;;;;;;5.45;3.65;;;-0.60;99.90;;;;;;7400114;19;19918;-74
2023/03/08 07:17:59;;;;;;;7.30;3.90;;;-1.60;99.90;;;;;;7403539;19;19922;-75
2023/03/08 07:20:30;;;;;;;;;;;-0.90;99.90;;;;;;7402148;19;20491;-78
2023/03/08 07:23:00;;;;;;;5.32;3.75;;;-1.40;99.90;;;;;;7399109;19;19935;-78
2023/03/08 07:25:30;;;;;;;8.32;4.63;;;-0.80;99.90;;;;;;7400113;19;19939;-77
2023/03/08 07:28:00;;;;;;;8.32;3.60;;;-0.70;99.90;;;;;;7399653;19;19978;-77
2023/03/08 07:30:37;;;;;;;7.20;3.72;;;0.00;99.90;;;;;;7400091;19;20275;-77
2023/03/08 07:33:07;;;;;;;8.68;3.88;;;;;;;;;;7399236;19;19921;-77
2023/03/08 07:35:39;;;;;;;8.88;4.20;;;-1.50;99.90;;;;;;7399216;19;19919;-78
2023/03/08 07:38:08;;;;;;;6.05;3.17;;;-1.30;99.90;;;;;;7399660;19;19954;-77
2023/03/08 07:40:37;;;;;;;4.43;3.75;;;-0.10;99.90;;;;;;7399475;19;19918;-78
2023/03/08 07:43:06;;;;;;;6.97;4.10;;;-1.40;99.90;;;;;;7398900;19;20260;-78
2023/03/08 07:45:35;;;;;;;5.88;4.22;;;;;;;;;;7399903;19;19946;-78
2023/03/08 07:48:05;;;;;;;6.82;4.55;;;;;;;;;;7400378;19;19961;-77
2023/03/08 07:50:34;;;;;;;5.55;3.97;;;;;;;;;;7399098;19;19922;-78
2023/03/08 07:53:06;;;;;;;6.53;4.05;;;-0.20;99.90;;;;;;7399208;19;19978;-77
2023/03/08 07:55:46;;;;;;;6.20;4.05;;;-1.00;99.90;;;;;;7401099;19;19915;-77
2023/03/08 07:58:15;;;;;;;7.05;4.20;;;-0.10;99.90;;;;;;7399138;19;20220;-77
2023/03/08 08:00:44;;;;;;;7.32;4.10;;;-0.90;99.90;;;;;;7399517;19;19925;-78
2023/03/08 08:03:13;;;;;;;7.80;4.35;;;-0.30;99.90;;;;;;7401607;19;19938;-78
2023/03/08 08:05:42;;;;;;;5.55;4.45;;;0.10;99.90;;;;;;7400041;19;19914;-77
2023/03/08 08:08:14;;;;;;;6.00;4.28;;;0.20;99.90;;;;;;7400060;19;19926;-77
2023/03/08 08:10:44;;;;;;;7.25;4.80;;;;;;;;;;7398643;19;19922;-77
2023/03/08 08:13:16;;;;;;;7.95;5.03;;;-0.50;99.90;;;;;;7398383;19;19919;-79
2023/03/08 08:15:44;;;;;;;8.18;4.63;;;0.20;99.90;;;;;;7405019;19;19918;-77
2023/03/08 08:18:14;;;;;;;6.50;4.10;;;-1.10;99.90;;;;;;7406885;19;19980;-78
2023/03/08 08:20:43;;;;;;;6.03;3.92;;;0.30;99.90;;;;;;7403253;19;20432;-78
2023/03/08 08:23:14;;;;;;;5.45;4.38;;;0.50;99.90;;;;;;7404618;19;20672;-77
2023/03/08 08:25:45;;;;;;;6.65;4.20;;;0.00;99.90;;;;;;7401892;19;19946;-77
2023/03/08 08:28:14;;;;;;;7.82;4.28;;;0.20;99.90;;;;;;7405570;19;19942;-77
2023/03/08 08:30:57;;;;;;;7.57;3.85;;;0.30;99.90;;;;;;7405414;19;19929;-77
2023/03/08 08:33:33;;;;;;;5.50;3.97;;;-0.10;99.90;;;;;;7405049;19;19922;-77
2023/03/08 08:36:06;;;;;;;6.93;3.75;;;-0.10;99.90;;;;;;7405768;19;19929;-76
2023/03/08 08:38:37;;;;;;;5.82;3.90;;;0.40;99.90;;;;;;7405949;19;19940;-76
2023/03/08 08:41:08;;;;;;;5.80;3.67;;;0.80;99.90;;;;;;7404689;19;19966;-76
2023/03/08 08:43:38;;;;;;;7.70;4.32;;;-0.80;99.90;;;;;;7403338;19;19919;-76
2023/03/08 08:46:08;;;;;;;6.53;4.05;;;;;;;;;;7406601;19;19954;-77
2023/03/08 08:48:37;;;;;;;5.88;3.90;;;0.00;99.90;;;;;;7404040;19;19915;-76
2023/03/08 08:51:07;;;;;;;5.20;4.15;;;0.40;99.90;;;;;;7404172;19;19911;-76
2023/03/08 08:53:39;;;;;;;5.05;3.78;;;0.20;99.90;;;;;;7406605;19;19918;-76
2023/03/08 08:56:15;;;;;;;6.18;3.80;;;0.00;99.90;;;;;;7404092;19;19923;-76
2023/03/08 08:58:45;;;;;;;7.72;3.70;;;-0.40;99.90;;;;;;7403740;19;19923;-77
2023/03/08 09:01:18;;;;;;;6.43;3.83;;;0.70;99.90;;;;;;7404575;19;20570;-76
2023/03/08 09:03:52;;;;;;;5.32;4.05;;;-0.40;99.90;;;;;;7402985;19;19922;-76
2023/03/08 09:06:22;;;;;;;8.25;3.67;;;0.40;99.90;;;;;;7404078;19;20412;-76
2023/03/08 09:08:56;;;;;;;3.60;3.08;;;0.40;99.90;;;;;;7403741;19;19923;-76
2023/03/08 09:11:26;;;;;;;7.88;4.50;;;1.40;99.90;;;;;;7402328;19;19998;-76
2023/03/08 09:13:55;;;;;;;6.95;3.60;;;1.20;99.90;;;;;;7403476;19;19929;-77
2023/03/08 09:16:26;;;;;;;5.65;4.45;;;0.10;99.90;;;;;;7407543;19;19922;-77
2023/03/08 09:18:57;;;;;;;5.57;4.30;;;0.50;99.90;;;;;;7403807;19;19934;-76
2023/03/08 09:21:27;;;;;;;7.10;3.38;;;0.60;99.90;;;;;;7401687;19;20316;-77
2023/03/08 09:24:02;;;;;;;5.90;3.75;;;1.30;99.90;;;;;;7403567;19;19974;-77
2023/03/08 09:26:32;;;;;;;4.38;3.75;;;0.30;99.90;;;;;;7401266;19;20273;-77
2023/03/08 09:29:04;;;;;;;7.18;4.22;;;1.30;99.90;;;;;;7403769;19;19918;-77
2023/03/08 09:31:39;;;;;;;7.65;4.25;;;1.30;99.90;;;;;;7407655;19;19990;-76
2023/03/08 09:34:08;;;;;;;5.50;3.40;;;1.30;99.90;;;;;;7403661;19;19915;-76
2023/03/08 09:36:38;;;;;;;5.70;3.33;;;1.90;99.90;;;;;;7403003;19;19918;-76
2023/03/08 09:39:10;;;;;;;5.50;3.70;;;1.40;99.90;;;;;;7401778;19;19918;-77
2023/03/08 09:41:52;;;;;;;6.05;3.67;;;2.10;99.90;;;;;;7403441;19;19918;-77
2023/03/08 09:44:46;;;;;;;5.25;3.25;;;0.80;99.90;;;;;;7402289;19;19936;-76
2023/03/08 09:47:27;;;;;;;5.47;3.65;;;1.40;99.90;;;;;;7403168;19;20316;-76
2023/03/08 09:50:00;;;;;;;5.18;3.42;;;1.80;99.90;;;;;;7403761;19;20348;-77
2023/03/08 09:52:37;;;;;;;4.38;3.42;;;1.30;99.90;;;;;;7403592;19;19918;-77
2023/03/08 09:55:17;;;;;;;6.22;4.43;;;1.50;99.90;;;;;;7403579;19;19927;-77
2023/03/08 09:57:54;;;;;;;7.88;3.58;;;1.80;99.90;;;;;;7402702;19;19930;-76
2023/03/08 10:00:30;;;;;;;7.93;3.70;;;0.80;99.90;;;;;;7402877;19;19953;-77
2023/03/08 10:03:34;;;;;;;3.83;3.38;;;0.90;99.90;;;;;;7402667;19;20332;-77
2023/03/08 10:06:08;;;;;;;5.85;3.75;;;1.90;99.90;;;;;;7400750;19;19914;-77
2023/03/08 10:08:45;;;;;;;6.43;3.20;;;0.70;99.90;;;;;;7402279;19;19935;-76
2023/03/08 10:11:22;;;;;;;4.65;3.13;;;1.30;99.90;;;;;;7404244;19;19938;-76
2023/03/08 10:13:55;;;;;;;4.07;3.15;;;1.40;99.90;;;;;;7401680;19;19918;-77
2023/03/08 10:16:28;;;;;;;4.85;3.42;;;2.00;99.90;;;;;;7401699;19;19910;-77
2023/03/08 10:19:02;;;;;;;4.40;3.22;;;1.50;99.90;;;;;;7402152;19;19915;-76
2023/03/08 10:21:34;;;;;;;5.28;3.40;;;1.20;99.90;;;;;;7398658;19;19935;-77
2023/03/08 10:24:17;;;;;;;4.78;3.05;;;1.60;99.90;;;;;;7401367;19;19946;-77
2023/03/08 10:26:49;;;;;;;5.45;3.35;;;1.70;99.90;;;;;;7401553;19;19922;-77
2023/03/08 10:29:18;;;;;;;6.50;3.30;;;1.80;99.90;;;;;;7401850;19;20528;-77
2023/03/08 10:31:47;;;;;;;4.68;2.85;;;3.00;99.90;;;;;;7401845;19;19923;-78
2023/03/08 10:34:18;;;;;;;4.55;3.30;;;2.90;99.90;;;;;;7401742;19;19922;-77
2023/03/08 10:36:53;;;;;;;5.78;3.40;;;1.70;99.90;;;;;;7400827;19;20324;-76
2023/03/08 10:39:22;;;;;;;6.25;2.92;;;2.20;99.90;;;;;;7402346;19;19918;-76
2023/03/08 10:41:57;;;;;;;5.55;2.63;;;2.10;99.90;;;;;;7401688;19;19922;-76
2023/03/08 10:44:35;;;;;;;4.32;2.65;;;2.10;99.90;;;;;;7400242;19;19924;-77
2023/03/08 10:47:18;;;;;;;4.00;2.63;;;2.80;99.90;;;;;;7401125;19;19921;-76
2023/03/08 10:49:48;;;;;;;6.30;2.90;;;2.50;99.90;;;;;;7401889;19;19926;-72
2023/03/08 10:52:26;;;;;;;3.92;2.67;;;2.40;99.90;;;;;;7402053;19;19972;-72
2023/03/08 10:55:06;;;;;;;3.47;2.72;;;2.80;99.90;;;;;;7400885;19;19914;-71
2023/03/08 10:57:39;;;;;;;3.42;2.58;;;2.70;99.90;;;;;;7403712;19;19915;-71
2023/03/08 11:00:28;;;;;;;4.68;2.63;;;1.80;99.90;;;;;;7401134;19;19935;-71
2023/03/08 11:03:13;;;;;;;4.45;2.97;;;3.40;99.90;;;;;;7400712;19;20401;-72
2023/03/08 11:05:42;;;;;;;;;;;2.90;99.90;;;;;;7402145;19;19911;-72
2023/03/08 11:08:20;;;;;;;2.40;2.03;;;3.10;99.90;;;;;;7400306;19;19918;-72
2023/03/08 11:10:49;;;;;;;3.83;2.33;;;3.90;99.90;;;;;;7404169;19;19918;-72
2023/03/08 11:13:28;;;;;;;4.20;2.65;;;4.20;99.90;;;;;;7400145;19;19946;-73
2023/03/08 11:16:05;;;;;;;4.28;2.95;;;3.30;99.90;;;;;;7403995;19;20318;-74
2023/03/08 11:18:48;;;;;;;5.00;3.10;;;2.80;99.90;;;;;;7400286;19;19930;-76
2023/03/08 11:21:27;;;;;;;6.25;2.50;;;4.10;99.90;;;;;;7377735;19;20648;-76
2023/03/08 11:24:03;;;;;;;3.67;2.28;;;3.30;99.90;;;;;;7372280;19;19918;-77
2023/03/08 11:26:42;;;;;;;4.30;2.50;;;3.90;99.90;;;;;;7374894;19;19946;-76
2023/03/08 11:29:27;;;;;;;6.55;2.55;;;4.00;99.90;;;;;;7378282;19;19919;-76
2023/03/08 11:32:08;;;;;;;4.75;2.78;;;3.10;99.90;;;;;;7350259;19;20332;-76
2023/03/08 11:34:59;;;;;;;3.88;2.38;;;4.10;99.90;;;;;;7370345;19;19929;-76
2023/03/08 11:37:37;;;;;;;8.18;2.38;;;3.80;99.90;;;;;;7377096;19;19942;-75
2023/03/08 11:40:21;;;;;;;3.60;2.85;;;3.10;99.90;;;;;;7364017;19;19910;-75
2023/03/08 11:43:03;;;;;;;3.28;2.80;;;5.10;99.90;;;;;;7373313;19;20007;-75
2023/03/08 11:45:41;;;;;;;4.28;1.98;;;4.60;99.90;;;;;;7361127;19;19982;-75
2023/03/08 11:48:32;;;;;;;2.15;1.50;;;4.90;99.90;;;;;;7376196;19;19924;-75
2023/03/08 11:51:08;;;;;;;3.33;1.80;;;4.50;99.90;;;;;;7385329;19;19922;-75
2023/03/08 11:53:50;;;;;;;2.53;1.77;;;5.30;99.90;;;;;;7368012;19;19989;-75
2023/03/08 11:56:42;;;;;;;3.35;2.40;;;2.60;99.90;;;;;;7380266;19;19919;-75
2023/03/08 11:59:28;;;;;;;4.15;2.13;;;3.70;99.90;;;;;;7401997;19;19918;-77
2023/03/08 12:02:04;;;;;;;2.75;2.25;;;4.40;99.90;;;;;;7405235;19;20360;-75
2023/03/08 12:04:39;;;;;;;3.67;2.47;;;4.80;99.90;;;;;;7407900;19;19929;-76
2023/03/08 12:07:14;;;;;;;3.75;2.00;;;4.10;99.90;;;;;;7408924;19;19922;-75
2023/03/08 12:09:57;;;;;;;2.47;1.80;;;4.30;99.90;;;;;;7405406;19;19915;-75
2023/03/08 12:12:32;;;;;;;4.75;2.38;;;4.50;99.90;;;;;;7404966;19;20281;-75
2023/03/08 12:15:09;;;;;;;4.22;2.00;;;4.60;99.90;;;;;;7404158;19;19919;-76
2023/03/08 12:17:54;;;;;;;3.13;2.22;;;4.30;99.90;;;;;;7405628;19;19910;-76
2023/03/08 12:20:24;;;;;;;5.50;2.53;;;4.50;99.90;;;;;;7405936;19;19914;-76
2023/03/08 12:23:02;;;;;;;4.30;2.08;;;4.70;99.90;;;;;;7405419;19;19918;-77
2023/03/08 12:25:34;;;;;;;3.72;2.22;;;4.60;99.90;;;;;;7404731;19;19919;-76
2023/03/08 12:28:12;;;;;;;3.05;2.47;;;5.60;99.90;;;;;;7405863;19;20683;-77
2023/03/08 12:30:51;;;;;;;4.88;2.85;;;4.80;99.90;;;;;;7407043;19;20326;-78
2023/03/08 12:33:23;;;;;;;3.75;3.22;;;5.90;99.90;;;;;;7407118;19;19941;-78
2023/03/08 12:35:56;;;;;;;4.05;2.25;;;4.90;99.90;;;;;;7404092;19;20559;-78
2023/03/08 12:38:35;;;;;;;2.30;2.00;;;5.50;99.90;;;;;;7408620;19;20037;-78
2023/03/08 12:41:05;;;;;;;3.22;2.28;;;4.90;99.90;;;;;;7406839;19;20341;-78
2023/03/08 12:43:37;;;;;;;3.92;2.22;;;4.90;99.90;;;;;;7407694;19;19923;-77
2023/03/08 12:46:09;;;;;;;6.43;2.67;;;4.90;99.90;;;;;;7403306;19;19989;-78
2023/03/08 12:48:49;;;;;;;4.75;2.40;;;4.80;99.90;;;;;;7406569;19;19975;-78
2023/03/08 12:51:25;;;;;;;4.95;2.72;;;5.00;99.90;;;;;;7407822;19;19930;-78
2023/03/08 12:54:00;;;;;;;3.10;2.33;;;5.00;99.90;;;;;;7404422;19;19918;-78
2023/03/08 12:56:35;;;;;;;3.47;2.38;;;5.10;99.90;;;;;;7405799;19;20317;-78
2023/03/08 12:59:24;;;;;;;4.32;3.05;;;5.70;99.90;;;;;;7403688;19;19946;-77
2023/03/08 13:02:03;;;;;;;3.47;2.40;;;5.30;99.90;;;;;;7400053;19;19907;-77
2023/03/08 13:04:37;;;;;;;3.17;2.42;;;5.40;99.90;;;;;;7407383;19;20364;-78
2023/03/08 13:07:18;;;;;;;4.55;3.17;;;6.00;99.90;;;;;;7403445;19;19936;-78
2023/03/08 13:09:55;;;;;;;5.22;2.63;;;5.60;99.90;;;;;;7404889;19;19922;-78
2023/03/08 13:12:36;;;;;;;3.20;2.33;;;5.50;99.90;;;;;;7403949;19;20013;-78
2023/03/08 13:15:23;;;;;;;4.50;2.88;;;5.50;99.90;;;;;;7403597;19;20046;-78
2023/03/08 13:17:55;;;;;;;5.15;2.75;;;5.50;99.90;;;;;;7408062;19;20359;-78
2023/03/08 13:20:34;;;;;;;6.47;2.88;;;5.50;99.90;;;;;;7407781;19;19981;-78
2023/03/08 13:23:11;;;;;;;4.97;2.80;;;5.70;99.90;;;;;;7405503;19;19920;-78
2023/03/08 13:25:55;;;;;;;8.35;3.53;;;5.80;99.90;;;;;;7404556;19;19926;-78
2023/03/08 13:28:26;;;;;;;4.20;2.70;;;5.80;99.90;;;;;;7404389;19;19914;-78
2023/03/08 13:30:57;;;;;;;4.00;2.47;;;5.80;99.90;;;;;;7406842;19;19926;-78